Impacts TAF Board
For situational awareness. Not to be used for flight planning purposes.
IDs:

KCLT - Charlotte/Douglas In, NC, US

Issued at 1735 UTC 22 Sep 2018
Updated at 1825 UTC 22 Sep 2018
Potential Impact None Slight Moderate High
Time1752Z 22/19Z 22/20Z 22/21Z 22/22Z 22/23Z 23/00Z 23/01Z 23/02Z 23/03Z 23/04Z 23/05Z 23/06Z 23/07Z>>
Type OBS PRVL PRVL PRVL PRVL PRVL PRVL PRVL PRVL PRVL PRVL PRVL PRVL PRVL
VIS 10 >6 >6 >6 >6 >6 >6 >6 >6 >6 >6 >6 >6 >6
CIG -- -- -- -- -- -- -- -- -- -- -- -- -- --
Cover SCT FEW FEW FEW FEW FEW FEW FEW FEW FEW SCT SCT SCT SCT
FltCat VFR VFR VFR VFR VFR VFR VFR VFR VFR VFR VFR VFR VFR VFR
WX -- -- -- -- -- -- -- -- -- -- -- -- -- --
WDir VRB 230 230 230 230 230 230 230 230 230 160 160 160 160
WSpd 0 4 4 4 4 4 4 4 4 4 3 3 3 3
WGst -- -- -- -- -- -- -- -- -- -- -- -- -- --
Raw TAF
KCLT 221735Z 2218/2324 23004KT P6SM FEW035 FEW250
  FM230400 16003KT P6SM SCT045
  FM230800 15003KT P6SM SCT020 BKN035
  PROB30 2318/2324 4SM -SHRA BR OVC025


Raw METAR
KCLT 221752Z 00000KT 10SM SCT044 29/21 A3011 RMK AO2 SLP186 T02940211 10306 20211 58011
KCLT 221652Z VRB04KT 10SM FEW030 29/21 A3012 RMK AO2 SLP192 T02940211
KCLT 221552Z 28004KT 10SM FEW020 28/21 A3014 RMK AO2 SLP196 T02830211

METAR Board
Radar Display
Forecast Discussion
For situational awareness. Not to be used for flight planning purposes.